首页
METAR-TAF:

METAR-TAF

机场 :

迈克蒂亚西蒙·玻利瓦尔国际机场

卡拉卡斯, 委内瑞拉

纬度: 10-36N, 经度: 066-59W, 海拔: 43米

当前天气观测

该预报发布于47分钟前的09:00 UTC
风速4节,风向西
温度 25°C
湿度 94%
气压 1012 hPa
能见度10公里或以上
少量云层高于1600英尺

METAR: SVMI 150900Z 27004KT 9999 FEW016 25/24 Q1012

时间: 05:47 (09:47 UTC)

预报

该预报发布于5小时和47分钟前的04:00 UTC
预报有效从15日的 06点(UTC)到 16日的 06点(UTC)
风速3节,风向西
能见度10公里或以上
散云层高于1600英尺
短暂存在
从 15日的 06点(UTC)到 15日的 10点(UTC)
风速5节,风向
能见度10公里或以上
散云层高于1600英尺

TAF: SVMI 150400Z 1506/1606 27003KT 9999 SCT016 TX31/19Z TN22/08Z TEMPO 1506/1510 09005KT 9999 SCT016

超过4000个机场的气象观测和天气预报(METAR&TAF报告)。

可查询的气象台以黄色和红色小点在地图上表示。

将鼠标移到小点上方,可查看气象台名称。

然后点击查看天气观测和预报。

如需切换地图:点击带黑十字的绿色按钮放大地图;点击带横线的绿色按钮缩小地图;或者点击绿色箭头查看邻近地区的地图。


METAR-TAF: